createdAt,value
2023-05-08T00:00:06.379Z,9.89
2023-05-08T00:01:06.395Z,9.82
2023-05-08T00:02:06.376Z,9.82
2023-05-08T00:03:06.467Z,9.74
2023-05-08T00:04:06.681Z,9.83
2023-05-08T00:05:06.364Z,9.91
2023-05-08T00:06:06.350Z,9.82
2023-05-08T00:07:06.326Z,9.86
2023-05-08T00:08:06.314Z,9.82
2023-05-08T00:09:06.309Z,9.83
2023-05-08T00:10:06.323Z,9.79
2023-05-08T00:11:06.326Z,9.84
2023-05-08T00:12:06.287Z,9.83
2023-05-08T00:13:06.314Z,9.76
2023-05-08T00:14:06.267Z,9.84
2023-05-08T00:15:06.296Z,9.80
2023-05-08T00:16:06.267Z,9.87
2023-05-08T00:17:06.324Z,9.77
2023-05-08T00:18:06.274Z,9.74
2023-05-08T00:19:06.230Z,9.74
2023-05-08T00:20:06.246Z,9.74
2023-05-08T00:21:06.217Z,9.72
2023-05-08T00:22:06.237Z,9.68
2023-05-08T00:23:06.203Z,9.69
2023-05-08T00:24:06.239Z,9.65
2023-05-08T00:25:06.225Z,9.72
2023-05-08T00:26:06.180Z,9.61
2023-05-08T00:27:06.170Z,9.59
2023-05-08T00:28:06.177Z,9.58
2023-05-08T00:29:06.874Z,9.64
2023-05-08T00:30:07.155Z,9.55
2023-05-08T00:31:06.134Z,9.56
2023-05-08T00:32:06.153Z,9.56
2023-05-08T00:33:06.160Z,9.59
2023-05-08T00:34:06.173Z,9.47
2023-05-08T00:35:06.110Z,9.58
2023-05-08T00:36:06.095Z,9.48
2023-05-08T00:37:06.094Z,9.44
2023-05-08T00:38:06.106Z,9.48
2023-05-08T00:39:06.100Z,9.43
2023-05-08T00:40:06.069Z,9.56
2023-05-08T00:41:06.067Z,9.47
2023-05-08T00:42:06.058Z,9.50
2023-05-08T00:43:06.085Z,9.51
2023-05-08T00:44:06.061Z,9.44
2023-05-08T00:45:06.029Z,9.54
2023-05-08T00:46:06.042Z,9.46
2023-05-08T00:47:06.013Z,9.46
2023-05-08T00:48:06.042Z,9.40
2023-05-08T00:49:06.003Z,9.43
2023-05-08T00:50:06.004Z,9.40
2023-05-08T00:51:05.993Z,9.47
2023-05-08T00:52:06.004Z,9.41
2023-05-08T00:53:05.995Z,9.44
2023-05-08T00:54:05.966Z,9.41
2023-05-08T00:55:05.989Z,9.26
2023-05-08T00:56:05.953Z,9.41
2023-05-08T00:57:05.974Z,9.32
2023-05-08T00:58:05.926Z,9.40
2023-05-08T00:59:05.923Z,9.28
2023-05-08T01:00:05.941Z,9.23
2023-05-08T01:01:05.928Z,9.39
2023-05-08T01:02:05.922Z,9.37
2023-05-08T01:03:06.027Z,9.31
2023-05-08T01:04:05.886Z,9.21
2023-05-08T01:05:05.883Z,9.31
2023-05-08T01:06:05.940Z,9.21
2023-05-08T01:07:05.891Z,9.19
2023-05-08T01:08:05.860Z,9.21
2023-05-08T01:09:05.849Z,9.26
2023-05-08T01:10:05.890Z,9.25
2023-05-08T01:11:05.858Z,9.18
2023-05-08T01:12:05.835Z,9.22
2023-05-08T01:13:05.851Z,9.25
2023-05-08T01:14:05.811Z,9.25
2023-05-08T01:15:05.807Z,9.18
2023-05-08T01:16:05.869Z,9.22
2023-05-08T01:17:05.791Z,9.22
2023-05-08T01:18:05.854Z,9.19
2023-05-08T01:19:05.773Z,9.13
2023-05-08T01:20:05.790Z,9.10
2023-05-08T01:21:05.784Z,9.08
2023-05-08T01:22:05.756Z,9.16
2023-05-08T01:23:05.752Z,9.00
2023-05-08T01:24:05.737Z,8.99
2023-05-08T01:25:05.781Z,9.16
2023-05-08T01:26:05.720Z,9.00
2023-05-08T01:27:05.717Z,9.06
2023-05-08T01:28:05.727Z,9.16
2023-05-08T01:29:05.694Z,9.18
2023-05-08T01:30:05.720Z,9.06
2023-05-08T01:31:05.674Z,9.16
2023-05-08T01:32:05.676Z,9.00
2023-05-08T01:33:05.750Z,9.14
2023-05-08T01:34:05.768Z,9.14
2023-05-08T01:35:05.680Z,9.13
2023-05-08T01:36:05.683Z,9.18
2023-05-08T01:37:05.646Z,9.03
2023-05-08T01:38:05.636Z,9.08
2023-05-08T01:39:05.641Z,9.02
2023-05-08T01:40:05.618Z,9.04
2023-05-08T01:41:05.601Z,9.14
2023-05-08T01:42:05.594Z,9.13
2023-05-08T01:43:05.588Z,9.14
2023-05-08T01:44:05.603Z,9.03
2023-05-08T01:45:05.590Z,9.03
2023-05-08T01:46:05.559Z,9.04
2023-05-08T01:47:05.750Z,9.08
2023-05-08T01:48:05.629Z,9.11
2023-05-08T01:49:05.579Z,9.08
2023-05-08T01:50:05.564Z,9.14
2023-05-08T01:51:05.522Z,9.06
2023-05-08T01:52:05.517Z,9.08
2023-05-08T01:53:05.538Z,9.04
2023-05-08T01:54:06.879Z,9.02
2023-05-08T01:55:05.536Z,8.99
2023-05-08T01:56:05.491Z,9.11
2023-05-08T01:57:05.482Z,9.08
2023-05-08T01:58:05.510Z,8.99
2023-05-08T01:59:05.470Z,9.03
2023-05-08T02:00:05.472Z,8.88
2023-05-08T02:01:05.483Z,9.00
2023-05-08T02:02:05.541Z,8.92
2023-05-08T02:03:05.517Z,8.99
2023-05-08T02:04:05.499Z,9.06
2023-05-08T02:05:05.433Z,9.00
2023-05-08T02:06:05.416Z,8.95
2023-05-08T02:07:05.434Z,8.99
2023-05-08T02:08:05.421Z,8.94
2023-05-08T02:09:05.392Z,9.04
2023-05-08T02:10:05.386Z,8.99
2023-05-08T02:11:05.376Z,8.94
2023-05-08T02:12:05.387Z,8.94
2023-05-08T02:13:05.484Z,8.89
2023-05-08T02:14:05.374Z,8.94
2023-05-08T02:15:05.352Z,9.02
2023-05-08T02:16:05.342Z,9.03
2023-05-08T02:17:05.398Z,8.99
2023-05-08T02:18:06.358Z,9.03
2023-05-08T02:19:05.309Z,9.02
2023-05-08T02:20:05.322Z,9.02
2023-05-08T02:21:05.324Z,8.99
2023-05-08T02:22:05.637Z,9.02
2023-05-08T02:23:05.286Z,8.95
2023-05-08T02:24:05.275Z,8.94
2023-05-08T02:25:05.264Z,8.97
2023-05-08T02:26:05.300Z,8.95
2023-05-08T02:27:05.268Z,8.94
2023-05-08T02:28:05.238Z,8.94
2023-05-08T02:29:05.231Z,8.94
2023-05-08T02:30:05.233Z,8.78
2023-05-08T02:31:05.241Z,8.85
2023-05-08T02:32:05.274Z,8.87
2023-05-08T02:33:05.285Z,8.89
2023-05-08T02:34:05.204Z,8.87
2023-05-08T02:35:05.206Z,8.84
2023-05-08T02:36:05.202Z,8.85
2023-05-08T02:37:05.174Z,8.84
2023-05-08T02:38:05.161Z,8.84
2023-05-08T02:39:05.149Z,8.89
2023-05-08T02:40:05.170Z,8.94
2023-05-08T02:41:05.145Z,9.02
2023-05-08T02:42:05.133Z,8.94
2023-05-08T02:43:05.128Z,8.91
2023-05-08T02:44:05.116Z,8.79
2023-05-08T02:45:05.121Z,8.70
2023-05-08T02:46:05.120Z,8.78
2023-05-08T02:47:06.988Z,8.81
2023-05-08T02:48:05.159Z,8.87
2023-05-08T02:49:05.101Z,8.71
2023-05-08T02:50:05.092Z,8.73
2023-05-08T02:51:05.057Z,8.81
2023-05-08T02:52:05.046Z,8.78
2023-05-08T02:53:05.064Z,8.74
2023-05-08T02:54:05.053Z,8.66
2023-05-08T02:55:05.020Z,8.67
2023-05-08T02:56:05.024Z,8.74
2023-05-08T02:57:05.013Z,8.76
2023-05-08T02:58:04.998Z,8.88
2023-05-08T02:59:05.040Z,8.78
2023-05-08T03:00:04.980Z,8.74
2023-05-08T03:01:04.996Z,8.73
2023-05-08T03:02:04.963Z,8.71
2023-05-08T03:03:05.111Z,8.76
2023-05-08T03:04:04.978Z,8.79
2023-05-08T03:05:04.975Z,8.70
2023-05-08T03:06:04.936Z,8.63
2023-05-08T03:07:04.944Z,8.58
2023-05-08T03:08:04.977Z,8.66
2023-05-08T03:09:04.932Z,8.70
2023-05-08T03:10:04.902Z,8.71
2023-05-08T03:11:04.895Z,8.69
2023-05-08T03:12:04.914Z,8.74
2023-05-08T03:13:04.927Z,8.71
2023-05-08T03:14:04.884Z,8.85
2023-05-08T03:15:04.978Z,8.71
2023-05-08T03:16:04.919Z,8.78
2023-05-08T03:17:04.850Z,8.66
2023-05-08T03:18:04.999Z,8.71
2023-05-08T03:19:04.840Z,8.76
2023-05-08T03:20:04.828Z,8.70
2023-05-08T03:21:04.821Z,8.79
2023-05-08T03:22:04.834Z,8.71
2023-05-08T03:23:04.828Z,8.63
2023-05-08T03:24:04.790Z,8.64
2023-05-08T03:25:04.790Z,8.70
2023-05-08T03:26:04.779Z,8.76
2023-05-08T03:27:04.857Z,8.67
2023-05-08T03:28:04.757Z,8.71
2023-05-08T03:29:04.794Z,8.61
2023-05-08T03:30:04.747Z,8.73
2023-05-08T03:31:04.768Z,8.67
2023-05-08T03:32:04.757Z,8.73
2023-05-08T03:33:04.775Z,8.56
2023-05-08T03:34:04.719Z,8.67
2023-05-08T03:35:04.706Z,8.74
2023-05-08T03:36:04.735Z,8.53
2023-05-08T03:37:04.721Z,8.70
2023-05-08T03:38:04.687Z,8.73
2023-05-08T03:39:04.669Z,8.67
2023-05-08T03:40:04.671Z,8.64
2023-05-08T03:41:04.689Z,8.67
2023-05-08T03:42:04.654Z,8.78
2023-05-08T03:43:04.646Z,8.56
2023-05-08T03:44:04.635Z,8.64
2023-05-08T03:45:04.633Z,8.76
2023-05-08T03:46:04.660Z,8.76
2023-05-08T03:47:04.749Z,8.84
2023-05-08T03:48:04.633Z,8.74
2023-05-08T03:49:04.614Z,8.76
2023-05-08T03:50:04.631Z,8.79
2023-05-08T03:51:04.611Z,8.71
2023-05-08T03:52:04.574Z,8.66
2023-05-08T03:53:04.565Z,8.74
2023-05-08T03:54:04.598Z,8.63
2023-05-08T03:55:04.584Z,8.74
2023-05-08T03:56:04.549Z,8.60
2023-05-08T03:57:04.538Z,8.78
2023-05-08T03:58:04.541Z,8.73
2023-05-08T03:59:04.537Z,8.76
2023-05-08T04:00:04.546Z,8.79
2023-05-08T04:01:04.512Z,8.74
2023-05-08T04:02:04.523Z,8.71
2023-05-08T04:03:04.633Z,8.61
2023-05-08T04:04:04.597Z,8.73
2023-05-08T04:05:04.506Z,8.78
2023-05-08T04:06:04.479Z,8.67
2023-05-08T04:07:04.475Z,8.58
2023-05-08T04:08:04.469Z,8.81
2023-05-08T04:09:04.508Z,8.67
2023-05-08T04:10:04.450Z,8.63
2023-05-08T04:11:04.441Z,8.55
2023-05-08T04:12:04.466Z,8.56
2023-05-08T04:13:04.522Z,8.63
2023-05-08T04:14:04.434Z,8.66
2023-05-08T04:15:04.408Z,8.61
2023-05-08T04:16:04.408Z,8.70
2023-05-08T04:17:04.461Z,8.67
2023-05-08T04:18:04.417Z,8.78
2023-05-08T04:19:04.411Z,8.71
2023-05-08T04:20:04.374Z,8.56
2023-05-08T04:21:04.370Z,8.66
2023-05-08T04:22:04.372Z,8.63
2023-05-08T04:23:04.377Z,8.53
2023-05-08T04:24:04.376Z,8.63
2023-05-08T04:25:04.331Z,8.64
2023-05-08T04:26:05.592Z,8.79
2023-05-08T04:27:04.320Z,8.52
2023-05-08T04:28:04.348Z,8.66
2023-05-08T04:29:04.308Z,8.66
2023-05-08T04:30:04.318Z,8.70
2023-05-08T04:31:04.285Z,8.73
2023-05-08T04:32:04.330Z,8.64
2023-05-08T04:33:04.403Z,8.63
2023-05-08T04:34:04.271Z,8.71
2023-05-08T04:35:04.357Z,8.69
2023-05-08T04:36:04.249Z,8.81
2023-05-08T04:37:04.249Z,8.71
2023-05-08T04:38:04.261Z,8.94
2023-05-08T04:39:04.245Z,8.89
2023-05-08T04:40:04.231Z,9.02
2023-05-08T04:41:04.220Z,8.99
2023-05-08T04:42:04.244Z,8.91
2023-05-08T04:43:04.231Z,9.04
2023-05-08T04:44:04.186Z,9.18
2023-05-08T04:45:04.184Z,9.19
2023-05-08T04:46:04.203Z,9.22
2023-05-08T04:47:04.199Z,9.36
2023-05-08T04:48:04.212Z,9.65
2023-05-08T04:49:04.159Z,9.40
2023-05-08T04:50:04.250Z,9.29
2023-05-08T04:51:04.140Z,9.19
2023-05-08T04:52:04.153Z,9.18
2023-05-08T04:53:04.124Z,9.11
2023-05-08T04:54:04.116Z,9.10
2023-05-08T04:55:04.134Z,9.04
2023-05-08T04:56:04.108Z,9.10
2023-05-08T04:57:04.110Z,9.10
2023-05-08T04:58:04.090Z,9.25
2023-05-08T04:59:04.074Z,9.13
2023-05-08T05:00:04.073Z,9.23
2023-05-08T05:01:04.102Z,9.21
2023-05-08T05:02:04.117Z,9.31
2023-05-08T05:03:04.143Z,9.36
2023-05-08T05:04:04.047Z,9.22
2023-05-08T05:05:04.031Z,9.22
2023-05-08T05:06:04.054Z,9.14
2023-05-08T05:07:05.013Z,9.19
2023-05-08T05:08:04.007Z,9.43
2023-05-08T05:09:03.996Z,9.43
2023-05-08T05:10:03.998Z,9.31
2023-05-08T05:11:04.017Z,9.29
2023-05-08T05:12:03.985Z,9.11
2023-05-08T05:13:03.982Z,9.26
2023-05-08T05:14:03.962Z,9.22
2023-05-08T05:15:03.980Z,9.28
2023-05-08T05:16:03.992Z,9.22
2023-05-08T05:17:03.982Z,9.19
2023-05-08T05:18:03.997Z,9.29
2023-05-08T05:19:03.917Z,9.40
2023-05-08T05:20:03.939Z,9.43
2023-05-08T05:21:03.903Z,9.50
2023-05-08T05:22:03.900Z,9.46
2023-05-08T05:23:04.028Z,9.46
2023-05-08T05:24:03.880Z,9.40
2023-05-08T05:25:03.898Z,9.47
2023-05-08T05:26:03.879Z,9.47
2023-05-08T05:27:03.889Z,9.51
2023-05-08T05:28:03.864Z,9.58
2023-05-08T05:29:03.850Z,9.46
2023-05-08T05:30:03.869Z,9.28
2023-05-08T05:31:03.853Z,9.25
2023-05-08T05:32:03.829Z,9.39
2023-05-08T05:33:03.841Z,9.39
2023-05-08T05:34:03.807Z,9.28
2023-05-08T05:35:03.833Z,9.50
2023-05-08T05:36:03.797Z,9.36
2023-05-08T05:37:03.786Z,9.56
2023-05-08T05:38:03.801Z,9.54
2023-05-08T05:39:03.804Z,9.56
2023-05-08T05:40:35.715Z,9.55
2023-05-08T05:41:03.766Z,9.54
2023-05-08T05:42:03.752Z,9.58
2023-05-08T05:43:03.760Z,9.72
2023-05-08T05:44:03.763Z,9.87
2023-05-08T05:45:03.735Z,9.82
2023-05-08T05:46:03.711Z,9.73
2023-05-08T05:47:03.720Z,9.80
2023-05-08T05:48:03.738Z,9.89
2023-05-08T05:49:03.719Z,9.92
2023-05-08T05:50:03.697Z,9.91
2023-05-08T05:51:03.693Z,9.79
2023-05-08T05:52:03.674Z,9.89
2023-05-08T05:53:04.030Z,9.92
2023-05-08T05:54:03.682Z,9.86
2023-05-08T05:55:03.650Z,9.86
2023-05-08T05:56:03.629Z,9.99
2023-05-08T05:57:03.626Z,9.83
2023-05-08T05:58:04.022Z,9.91
2023-05-08T05:59:03.614Z,9.94
2023-05-08T06:00:03.612Z,9.94
2023-05-08T06:01:03.638Z,9.97
2023-05-08T06:02:03.658Z,9.97
2023-05-08T06:03:04.145Z,9.91
2023-05-08T06:04:03.751Z,10.01
2023-05-08T06:05:03.568Z,9.92
2023-05-08T06:06:03.583Z,9.87
2023-05-08T06:07:03.617Z,9.91
2023-05-08T06:08:04.033Z,9.91
2023-05-08T06:09:03.581Z,9.86
2023-05-08T06:10:03.591Z,9.98
2023-05-08T06:11:03.532Z,10.13
2023-05-08T06:12:03.540Z,9.80
2023-05-08T06:13:04.588Z,9.92
2023-05-08T06:14:03.553Z,10.12
2023-05-08T06:15:03.502Z,10.23
2023-05-08T06:16:03.525Z,10.25
2023-05-08T06:17:03.567Z,9.97
2023-05-08T06:18:03.534Z,10.02
2023-05-08T06:19:04.202Z,10.07
2023-05-08T06:20:03.490Z,10.13
2023-05-08T06:21:03.502Z,10.09
2023-05-08T06:22:03.485Z,10.09
2023-05-08T06:23:03.474Z,10.13
2023-05-08T06:24:03.426Z,10.20
2023-05-08T06:25:03.416Z,10.16
2023-05-08T06:26:04.446Z,10.31
2023-05-08T06:27:03.413Z,10.35
2023-05-08T06:28:03.401Z,10.37
2023-05-08T06:29:03.426Z,10.40
2023-05-08T06:30:03.438Z,10.28
2023-05-08T06:31:03.416Z,10.33
2023-05-08T06:32:03.420Z,10.22
2023-05-08T06:33:03.393Z,10.28
2023-05-08T06:34:03.365Z,10.31
2023-05-08T06:35:03.379Z,10.38
2023-05-08T06:36:03.359Z,10.41
2023-05-08T06:37:03.338Z,10.33
2023-05-08T06:38:03.345Z,10.28
2023-05-08T06:39:03.348Z,10.37
2023-05-08T06:40:12.316Z,10.37
2023-05-08T06:41:05.317Z,10.46
2023-05-08T06:42:03.338Z,10.59
2023-05-08T06:43:03.306Z,10.63
2023-05-08T06:44:03.290Z,10.61
2023-05-08T06:45:03.309Z,10.64
2023-05-08T06:46:05.492Z,10.63
2023-05-08T06:47:03.249Z,10.67
2023-05-08T06:48:04.278Z,10.51
2023-05-08T06:49:03.263Z,10.61
2023-05-08T06:50:04.267Z,10.69
2023-05-08T06:51:03.237Z,10.90
2023-05-08T06:52:03.225Z,10.87
2023-05-08T06:53:03.213Z,10.76
2023-05-08T06:54:03.238Z,10.87
2023-05-08T06:55:03.198Z,10.79
2023-05-08T06:56:03.195Z,10.94
2023-05-08T06:57:03.195Z,10.84
2023-05-08T06:58:03.195Z,10.87
2023-05-08T06:59:08.567Z,10.99
2023-05-08T07:00:05.161Z,11.02
2023-05-08T07:01:03.154Z,10.94
2023-05-08T07:02:03.306Z,11.07
2023-05-08T07:03:03.169Z,11.11
2023-05-08T07:04:03.163Z,11.19
2023-05-08T07:05:03.288Z,11.33
2023-05-08T07:06:03.110Z,11.48
2023-05-08T07:07:03.109Z,11.37
2023-05-08T07:08:03.126Z,11.35
2023-05-08T07:09:03.112Z,11.29
2023-05-08T07:10:03.097Z,11.29
2023-05-08T07:11:03.098Z,11.37
2023-05-08T07:12:03.076Z,11.37
2023-05-08T07:13:03.129Z,11.36
2023-05-08T07:14:03.065Z,11.36
2023-05-08T07:15:13.933Z,11.63
2023-05-08T07:16:05.077Z,11.47
2023-05-08T07:17:03.040Z,11.50
2023-05-08T07:18:03.152Z,11.69
2023-05-08T07:19:03.024Z,11.88
2023-05-08T07:20:03.014Z,11.99
2023-05-08T07:21:03.009Z,12.10
2023-05-08T07:22:03.198Z,11.95
2023-05-08T07:23:03.022Z,11.91
2023-05-08T07:24:02.984Z,12.21
2023-05-08T07:25:02.977Z,12.24
2023-05-08T07:26:02.975Z,12.28
2023-05-08T07:27:02.999Z,12.36
2023-05-08T07:28:02.950Z,12.22
2023-05-08T07:29:02.969Z,12.28
2023-05-08T07:30:02.953Z,12.21
2023-05-08T07:31:02.990Z,12.43
2023-05-08T07:32:03.093Z,12.57
2023-05-08T07:33:02.946Z,12.60
2023-05-08T07:34:02.928Z,12.46
2023-05-08T07:35:02.962Z,12.58
2023-05-08T07:36:02.895Z,12.53
2023-05-08T07:37:02.960Z,12.75
2023-05-08T07:38:02.924Z,12.85
2023-05-08T07:39:02.878Z,12.95
2023-05-08T07:40:02.853Z,13.05
2023-05-08T07:41:02.905Z,12.98
2023-05-08T07:42:02.865Z,12.76
2023-05-08T07:43:02.832Z,12.83
2023-05-08T07:44:02.844Z,12.87
2023-05-08T07:45:02.813Z,13.38
2023-05-08T07:46:02.832Z,13.46
2023-05-08T07:47:02.823Z,13.62
2023-05-08T07:48:02.907Z,13.87
2023-05-08T07:49:02.782Z,13.90
2023-05-08T07:50:02.776Z,13.86
2023-05-08T07:51:02.794Z,14.05
2023-05-08T07:52:02.829Z,14.23
2023-05-08T07:53:02.776Z,14.36
2023-05-08T07:54:02.746Z,14.69
2023-05-08T07:55:02.764Z,14.91
2023-05-08T07:56:02.763Z,15.04
2023-05-08T07:57:02.717Z,14.66
2023-05-08T07:58:02.712Z,14.73
2023-05-08T07:59:02.729Z,14.79
2023-05-08T08:00:02.713Z,14.36
2023-05-08T08:01:03.757Z,13.90
2023-05-08T08:02:02.701Z,13.57
2023-05-08T08:03:02.735Z,13.62
2023-05-08T08:04:02.789Z,13.79
2023-05-08T08:05:02.679Z,13.92
2023-05-08T08:06:02.645Z,13.96
2023-05-08T08:07:02.638Z,14.29
2023-05-08T08:08:02.660Z,14.05
2023-05-08T08:09:02.646Z,14.07
2023-05-08T08:10:02.657Z,13.75
2023-05-08T08:11:03.813Z,13.65
2023-05-08T08:12:03.700Z,13.81
2023-05-08T08:13:02.662Z,13.79
2023-05-08T08:14:02.625Z,13.92
2023-05-08T08:15:02.606Z,14.23
2023-05-08T08:16:02.627Z,14.44
2023-05-08T08:17:02.667Z,14.55
2023-05-08T08:18:02.599Z,14.55
2023-05-08T08:19:02.572Z,14.48
2023-05-08T08:20:02.559Z,14.65
2023-05-08T08:21:02.540Z,14.78
2023-05-08T08:22:02.623Z,14.85
2023-05-08T08:23:02.527Z,15.14
2023-05-08T08:24:02.540Z,15.33
2023-05-08T08:25:02.503Z,15.10
2023-05-08T08:26:02.507Z,14.97
2023-05-08T08:27:02.492Z,14.94
2023-05-08T08:28:02.532Z,15.00
2023-05-08T08:29:02.497Z,15.22
2023-05-08T08:30:16.221Z,15.18
2023-05-08T08:31:04.507Z,15.21
2023-05-08T08:32:02.452Z,15.33
2023-05-08T08:33:02.564Z,15.36
2023-05-08T08:34:02.432Z,15.64
2023-05-08T08:35:02.453Z,15.65
2023-05-08T08:36:02.420Z,15.61
2023-05-08T08:37:02.412Z,15.80
2023-05-08T08:38:02.524Z,16.10
2023-05-08T08:39:02.395Z,16.21
2023-05-08T08:40:02.382Z,15.84
2023-05-08T08:41:02.376Z,15.57
2023-05-08T08:42:02.372Z,15.39
2023-05-08T08:43:02.386Z,15.03
2023-05-08T08:44:02.353Z,14.79
2023-05-08T08:45:02.356Z,14.91
2023-05-08T08:46:02.359Z,14.77
2023-05-08T08:47:02.360Z,14.86
2023-05-08T08:48:02.462Z,14.63
2023-05-08T08:49:02.323Z,14.82
2023-05-08T08:50:02.310Z,14.77
2023-05-08T08:51:02.305Z,15.02
2023-05-08T08:52:02.312Z,14.88
2023-05-08T08:53:02.296Z,15.04
2023-05-08T08:54:02.361Z,15.21
2023-05-08T08:55:02.272Z,15.10
2023-05-08T08:56:02.300Z,14.96
2023-05-08T08:57:05.099Z,15.18
2023-05-08T08:58:02.283Z,15.43
2023-05-08T08:59:02.240Z,15.73
2023-05-08T09:00:02.270Z,15.62
2023-05-08T09:01:02.269Z,15.77
2023-05-08T09:02:02.321Z,15.79
2023-05-08T09:03:02.317Z,15.95
2023-05-08T09:04:02.320Z,16.23
2023-05-08T09:05:02.195Z,16.47
2023-05-08T09:06:02.228Z,16.00
2023-05-08T09:07:02.177Z,15.91
2023-05-08T09:08:02.176Z,16.24
2023-05-08T09:09:02.162Z,16.53
2023-05-08T09:10:02.261Z,16.90
2023-05-08T09:11:02.235Z,15.90
2023-05-08T09:12:02.139Z,15.52
2023-05-08T09:13:02.162Z,15.40
2023-05-08T09:14:02.114Z,15.42
2023-05-08T09:15:03.167Z,15.76
2023-05-08T09:16:02.232Z,15.54
2023-05-08T09:17:02.107Z,15.43
2023-05-08T09:18:02.107Z,15.64
2023-05-08T09:19:03.348Z,15.52
2023-05-08T09:20:02.142Z,15.49
2023-05-08T09:21:02.063Z,15.44
2023-05-08T09:22:02.050Z,15.49
2023-05-08T09:23:02.051Z,15.64
2023-05-08T09:24:02.048Z,15.97
2023-05-08T09:25:02.053Z,15.98
2023-05-08T09:26:02.118Z,15.94
2023-05-08T09:27:02.016Z,16.43
2023-05-08T09:28:02.006Z,16.76
2023-05-08T09:29:02.027Z,16.53
2023-05-08T09:30:02.026Z,16.53
2023-05-08T09:31:02.620Z,16.58
2023-05-08T09:32:02.044Z,16.02
2023-05-08T09:33:02.062Z,16.13
2023-05-08T09:34:01.996Z,16.39
2023-05-08T09:35:02.051Z,16.41
2023-05-08T09:36:01.957Z,16.41
2023-05-08T09:37:01.937Z,15.98
2023-05-08T09:38:01.929Z,15.73
2023-05-08T09:39:01.951Z,15.54
2023-05-08T09:40:01.916Z,15.64
2023-05-08T09:41:01.911Z,15.80
2023-05-08T09:42:02.015Z,15.94
2023-05-08T09:43:01.890Z,15.90
2023-05-08T09:44:02.531Z,16.01
2023-05-08T09:45:01.894Z,16.12
2023-05-08T09:46:01.899Z,16.04
2023-05-08T09:47:01.875Z,16.09
2023-05-08T09:48:02.053Z,16.28
2023-05-08T09:49:01.866Z,16.24
2023-05-08T09:50:02.599Z,16.28
2023-05-08T09:51:01.845Z,16.47
2023-05-08T09:52:01.864Z,16.60
2023-05-08T09:53:01.845Z,16.75
2023-05-08T09:54:01.806Z,16.93
2023-05-08T09:55:01.797Z,16.61
2023-05-08T09:56:01.806Z,16.51
2023-05-08T09:57:01.781Z,16.53
2023-05-08T09:58:01.886Z,16.66
2023-05-08T09:59:01.818Z,16.71
2023-05-08T10:00:01.753Z,16.79
2023-05-08T10:01:01.812Z,16.83
2023-05-08T10:02:01.810Z,16.76
2023-05-08T10:03:01.782Z,16.68
2023-05-08T10:04:01.755Z,16.61
2023-05-08T10:05:01.786Z,16.75
2023-05-08T10:06:01.716Z,16.75
2023-05-08T10:07:01.733Z,16.83
2023-05-08T10:08:01.697Z,16.58
2023-05-08T10:09:01.688Z,16.84
2023-05-08T10:10:01.737Z,17.22
2023-05-08T10:11:01.676Z,17.49
2023-05-08T10:12:01.716Z,17.78
2023-05-08T10:13:01.730Z,17.67
2023-05-08T10:14:01.812Z,17.24
2023-05-08T10:15:01.641Z,17.34
2023-05-08T10:16:01.636Z,17.68
2023-05-08T10:17:01.681Z,17.70
2023-05-08T10:18:01.629Z,17.39
2023-05-08T10:19:01.605Z,16.97
2023-05-08T10:20:01.608Z,17.23
2023-05-08T10:21:01.630Z,17.22
2023-05-08T10:22:01.653Z,17.46
2023-05-08T10:23:01.580Z,17.78
2023-05-08T10:24:01.577Z,17.83
2023-05-08T10:25:01.559Z,17.85
2023-05-08T10:26:01.595Z,18.26
2023-05-08T10:28:02.578Z,18.05
2023-05-08T10:29:01.530Z,17.72
2023-05-08T10:30:01.613Z,17.97
2023-05-08T10:31:01.642Z,18.26
2023-05-08T10:32:01.509Z,18.50
2023-05-08T10:33:01.561Z,18.52
2023-05-08T10:34:01.531Z,18.20
2023-05-08T10:35:01.494Z,18.05
2023-05-08T10:36:01.582Z,17.71
2023-05-08T10:37:01.473Z,17.74
2023-05-08T10:38:01.476Z,17.72
2023-05-08T10:39:01.470Z,17.68
2023-05-08T10:40:01.483Z,17.68
2023-05-08T10:41:01.529Z,17.95
2023-05-08T10:42:01.444Z,17.95
2023-05-08T10:43:01.431Z,17.65
2023-05-08T10:44:03.148Z,17.68
2023-05-08T10:45:01.517Z,17.86
2023-05-08T10:46:01.533Z,18.00
2023-05-08T10:47:01.405Z,17.82
2023-05-08T10:48:01.432Z,17.85
2023-05-08T10:49:01.451Z,17.79
2023-05-08T10:50:01.396Z,18.19
2023-05-08T10:51:02.213Z,18.29
2023-05-08T10:52:01.343Z,18.41
2023-05-08T10:53:01.411Z,18.71
2023-05-08T10:54:01.461Z,18.40
2023-05-08T10:55:01.821Z,18.13
2023-05-08T10:56:01.335Z,18.20
2023-05-08T10:57:01.313Z,18.19
2023-05-08T10:58:02.161Z,18.28
2023-05-08T10:59:02.554Z,18.22
2023-05-08T11:00:01.301Z,18.26
2023-05-08T11:01:01.286Z,18.18
2023-05-08T11:02:01.333Z,18.44
2023-05-08T11:03:01.360Z,18.77
2023-05-08T11:04:01.368Z,18.66
2023-05-08T11:05:01.250Z,18.80
2023-05-08T11:06:01.549Z,19.08
2023-05-08T11:07:01.263Z,18.81
2023-05-08T11:08:01.260Z,18.47
2023-05-08T11:09:01.256Z,18.62
2023-05-08T11:10:01.215Z,18.83
2023-05-08T11:11:01.217Z,18.90
2023-05-08T11:12:01.211Z,18.96
2023-05-08T11:13:01.395Z,18.99
2023-05-08T11:14:01.188Z,18.93
2023-05-08T11:15:01.201Z,19.07
2023-05-08T11:16:01.239Z,19.19
2023-05-08T11:17:01.183Z,19.24
2023-05-08T11:18:01.227Z,19.18
2023-05-08T11:19:01.164Z,19.15
2023-05-08T11:20:01.143Z,19.02
2023-05-08T11:21:01.148Z,18.83
2023-05-08T11:22:01.163Z,18.81
2023-05-08T11:23:01.149Z,18.95
2023-05-08T11:24:01.186Z,19.09
2023-05-08T11:25:02.065Z,19.09
2023-05-08T11:26:01.096Z,19.24
2023-05-08T11:27:01.143Z,19.34
2023-05-08T11:28:01.115Z,19.44
2023-05-08T11:29:01.085Z,19.44
2023-05-08T11:30:01.182Z,19.48
2023-05-08T11:31:01.071Z,19.41
2023-05-08T11:32:01.188Z,19.47
2023-05-08T11:33:01.069Z,19.41
2023-05-08T11:34:01.060Z,19.37
2023-05-08T11:35:01.046Z,19.18
2023-05-08T11:36:01.063Z,19.02
2023-05-08T11:37:01.035Z,19.00
2023-05-08T11:38:01.014Z,18.83
2023-05-08T11:39:00.994Z,19.02
2023-05-08T11:40:01.007Z,19.00
2023-05-08T11:41:32.921Z,19.12
2023-05-08T11:42:00.961Z,19.09
2023-05-08T11:43:01.966Z,18.98
2023-05-08T11:44:00.989Z,18.95
2023-05-08T11:45:00.955Z,19.07
2023-05-08T11:46:00.970Z,19.29
2023-05-08T11:47:00.944Z,19.40
2023-05-08T11:48:01.080Z,19.39
2023-05-08T11:49:00.936Z,19.29
2023-05-08T11:50:00.935Z,19.36
2023-05-08T11:51:00.950Z,19.30
2023-05-08T11:52:00.907Z,19.66
2023-05-08T11:53:00.927Z,19.86
2023-05-08T11:54:00.900Z,20.06
2023-05-08T11:55:00.936Z,19.67
2023-05-08T11:56:00.906Z,19.62
2023-05-08T11:57:00.886Z,19.64
2023-05-08T11:58:00.900Z,19.48
2023-05-08T11:59:00.883Z,19.51
2023-05-08T12:00:00.895Z,19.12
2023-05-08T12:01:00.861Z,19.15
2023-05-08T12:02:08.358Z,19.36
2023-05-08T12:03:03.087Z,19.55
2023-05-08T12:04:01.100Z,19.62
2023-05-08T12:05:00.848Z,19.76
2023-05-08T12:06:00.796Z,19.55
2023-05-08T12:07:00.787Z,19.54
2023-05-08T12:08:00.779Z,19.64
2023-05-08T12:09:00.820Z,19.37
2023-05-08T12:10:00.771Z,19.76
2023-05-08T12:11:00.761Z,19.54
2023-05-08T12:12:00.743Z,19.77
2023-05-08T12:13:01.765Z,19.44
2023-05-08T12:14:00.770Z,19.48
2023-05-08T12:15:00.731Z,19.47
2023-05-08T12:16:00.731Z,19.48
2023-05-08T12:17:00.772Z,19.44
2023-05-08T12:18:00.791Z,19.73
2023-05-08T12:19:00.733Z,19.82
2023-05-08T12:20:00.691Z,20.02
2023-05-08T12:21:00.845Z,19.73
2023-05-08T12:22:00.675Z,19.59
2023-05-08T12:23:00.708Z,19.71
2023-05-08T12:24:00.680Z,19.67
2023-05-08T12:25:00.654Z,19.74
2023-05-08T12:26:00.656Z,19.66
2023-05-08T12:27:00.646Z,19.44
2023-05-08T12:28:00.686Z,19.41
2023-05-08T12:29:00.636Z,19.86
2023-05-08T12:30:00.619Z,20.10
2023-05-08T12:31:00.651Z,20.19
2023-05-08T12:32:00.642Z,19.85
2023-05-08T12:33:00.663Z,19.79
2023-05-08T12:34:00.591Z,19.63
2023-05-08T12:35:00.638Z,19.66
2023-05-08T12:36:00.569Z,19.69
2023-05-08T12:37:00.609Z,19.81
2023-05-08T12:38:00.740Z,19.96
2023-05-08T12:39:00.551Z,20.18
2023-05-08T12:40:00.566Z,20.40
2023-05-08T12:41:00.549Z,20.22
2023-05-08T12:42:01.138Z,20.02
2023-05-08T12:43:01.514Z,20.02
2023-05-08T12:44:00.510Z,20.28
2023-05-08T12:45:00.515Z,20.18
2023-05-08T12:46:00.517Z,19.92
2023-05-08T12:47:00.610Z,19.95
2023-05-08T12:48:00.540Z,20.21
2023-05-08T12:49:00.548Z,20.31
2023-05-08T12:50:00.488Z,19.85
2023-05-08T12:51:00.514Z,19.92
2023-05-08T12:52:00.475Z,20.13
2023-05-08T12:53:00.442Z,20.41
2023-05-08T12:54:00.522Z,20.07
2023-05-08T12:55:00.446Z,20.19
2023-05-08T12:56:00.449Z,19.88
2023-05-08T12:57:00.432Z,20.02
2023-05-08T12:58:00.404Z,20.28
2023-05-08T12:59:00.403Z,20.19
2023-05-08T13:00:02.062Z,20.29
2023-05-08T13:01:01.400Z,20.31
2023-05-08T13:02:00.490Z,19.91
2023-05-08T13:03:00.459Z,20.16
2023-05-08T13:04:02.650Z,20.40
2023-05-08T13:05:01.408Z,20.32